sensor_id;sensor_type;location;lat;lon;timestamp;pressure;altitude;pressure_sealevel;temperature;humidity
4836;BME280;66719;51.226;6.902;2023-01-29T00:00:21;102260.63;;;-2.14;100.00
4836;BME280;66719;51.226;6.902;2023-01-29T00:02:47;102251.31;;;-2.12;100.00
4836;BME280;66719;51.226;6.902;2023-01-29T00:05:14;102260.00;;;-2.25;100.00
4836;BME280;66719;51.226;6.902;2023-01-29T00:07:54;102250.97;;;-2.18;100.00
4836;BME280;66719;51.226;6.902;2023-01-29T00:10:25;102252.19;;;-2.27;100.00
4836;BME280;66719;51.226;6.902;2023-01-29T00:12:51;102246.88;;;-2.44;100.00
4836;BME280;66719;51.226;6.902;2023-01-29T00:15:18;102244.44;;;-2.43;100.00
4836;BME280;66719;51.226;6.902;2023-01-29T00:17:45;102240.91;;;-2.30;100.00
4836;BME280;66719;51.226;6.902;2023-01-29T00:20:12;102235.25;;;-2.24;100.00
4836;BME280;66719;51.226;6.902;2023-01-29T00:22:39;102230.28;;;-2.21;100.00
4836;BME280;66719;51.226;6.902;2023-01-29T00:25:06;102229.13;;;-2.12;100.00
4836;BME280;66719;51.226;6.902;2023-01-29T00:27:33;102235.75;;;-2.01;100.00
4836;BME280;66719;51.226;6.902;2023-01-29T00:29:59;102234.34;;;-2.10;100.00
4836;BME280;66719;51.226;6.902;2023-01-29T00:32:41;102226.41;;;-2.15;100.00
4836;BME280;66719;51.226;6.902;2023-01-29T00:35:08;102228.94;;;-2.44;100.00
4836;BME280;66719;51.226;6.902;2023-01-29T00:37:35;102222.66;;;-2.64;100.00
4836;BME280;66719;51.226;6.902;2023-01-29T00:40:02;102220.16;;;-2.63;100.00
4836;BME280;66719;51.226;6.902;2023-01-29T00:42:28;102232.72;;;-2.52;100.00
4836;BME280;66719;51.226;6.902;2023-01-29T00:45:13;102225.41;;;-2.46;100.00
4836;BME280;66719;51.226;6.902;2023-01-29T00:47:40;102228.25;;;-2.42;100.00
4836;BME280;66719;51.226;6.902;2023-01-29T00:50:09;102230.81;;;-2.27;100.00
4836;BME280;66719;51.226;6.902;2023-01-29T00:52:37;102223.31;;;-2.24;100.00
4836;BME280;66719;51.226;6.902;2023-01-29T00:55:04;102222.88;;;-2.17;100.00
4836;BME280;66719;51.226;6.902;2023-01-29T00:57:32;102223.84;;;-2.15;100.00
4836;BME280;66719;51.226;6.902;2023-01-29T00:59:59;102217.03;;;-2.14;100.00
4836;BME280;66719;51.226;6.902;2023-01-29T01:02:26;102217.81;;;-2.15;100.00
4836;BME280;66719;51.226;6.902;2023-01-29T01:05:12;102223.56;;;-2.05;100.00
4836;BME280;66719;51.226;6.902;2023-01-29T01:07:45;102227.53;;;-2.10;100.00
4836;BME280;66719;51.226;6.902;2023-01-29T01:10:14;102225.06;;;-2.38;100.00
4836;BME280;66719;51.226;6.902;2023-01-29T01:12:57;102222.13;;;-2.59;100.00
4836;BME280;66719;51.226;6.902;2023-01-29T01:15:27;102222.56;;;-2.66;100.00
4836;BME280;66719;51.226;6.902;2023-01-29T01:17:56;102228.75;;;-2.62;100.00
4836;BME280;66719;51.226;6.902;2023-01-29T01:20:26;102238.13;;;-2.63;100.00
4836;BME280;66719;51.226;6.902;2023-01-29T01:22:53;102239.13;;;-2.61;100.00
4836;BME280;66719;51.226;6.902;2023-01-29T01:25:25;102241.38;;;-2.65;100.00
4836;BME280;66719;51.226;6.902;2023-01-29T01:27:53;102236.44;;;-2.62;100.00
4836;BME280;66719;51.226;6.902;2023-01-29T01:30:20;102225.94;;;-2.67;100.00
4836;BME280;66719;51.226;6.902;2023-01-29T01:32:47;102231.06;;;-2.67;100.00
4836;BME280;66719;51.226;6.902;2023-01-29T01:35:14;102226.81;;;-2.66;100.00
4836;BME280;66719;51.226;6.902;2023-01-29T01:37:40;102219.50;;;-2.60;100.00
4836;BME280;66719;51.226;6.902;2023-01-29T01:40:15;102210.38;;;-2.55;100.00
4836;BME280;66719;51.226;6.902;2023-01-29T01:42:46;102194.56;;;-2.48;100.00
4836;BME280;66719;51.226;6.902;2023-01-29T01:48:00;102183.44;;;-2.34;100.00
4836;BME280;66719;51.226;6.902;2023-01-29T01:50:35;102183.69;;;-2.29;100.00
4836;BME280;66719;51.226;6.902;2023-01-29T01:53:08;102188.88;;;-2.28;100.00
4836;BME280;66719;51.226;6.902;2023-01-29T01:55:49;102189.97;;;-2.24;100.00
4836;BME280;66719;51.226;6.902;2023-01-29T01:58:24;102191.38;;;-2.44;100.00
4836;BME280;66719;51.226;6.902;2023-01-29T02:00:52;102192.78;;;-2.64;100.00
4836;BME280;66719;51.226;6.902;2023-01-29T02:03:21;102193.03;;;-2.74;100.00
4836;BME280;66719;51.226;6.902;2023-01-29T02:06:09;102202.13;;;-2.79;100.00
4836;BME280;66719;51.226;6.902;2023-01-29T02:08:57;102202.66;;;-2.70;100.00
4836;BME280;66719;51.226;6.902;2023-01-29T02:11:45;102198.88;;;-2.62;100.00
4836;BME280;66719;51.226;6.902;2023-01-29T02:14:11;102202.16;;;-2.64;100.00
4836;BME280;66719;51.226;6.902;2023-01-29T02:16:38;102197.66;;;-2.53;100.00
4836;BME280;66719;51.226;6.902;2023-01-29T02:19:11;102201.44;;;-2.47;100.00
4836;BME280;66719;51.226;6.902;2023-01-29T02:21:49;102209.69;;;-2.38;100.00
4836;BME280;66719;51.226;6.902;2023-01-29T02:27:08;102215.03;;;-2.63;100.00
4836;BME280;66719;51.226;6.902;2023-01-29T02:29:46;102209.13;;;-2.76;100.00
4836;BME280;66719;51.226;6.902;2023-01-29T02:35:07;102228.06;;;-2.88;100.00
4836;BME280;66719;51.226;6.902;2023-01-29T02:38:00;102234.63;;;-2.93;100.00
4836;BME280;66719;51.226;6.902;2023-01-29T02:40:45;102230.00;;;-2.98;100.00
4836;BME280;66719;51.226;6.902;2023-01-29T02:45:59;102233.09;;;-2.89;100.00
4836;BME280;66719;51.226;6.902;2023-01-29T02:48:37;102239.56;;;-2.81;100.00
4836;BME280;66719;51.226;6.902;2023-01-29T02:51:12;102242.53;;;-2.75;100.00
4836;BME280;66719;51.226;6.902;2023-01-29T02:56:40;102247.69;;;-2.60;100.00
4836;BME280;66719;51.226;6.902;2023-01-29T02:59:14;102238.41;;;-2.58;100.00
4836;BME280;66719;51.226;6.902;2023-01-29T03:01:53;102233.34;;;-2.57;100.00
4836;BME280;66719;51.226;6.902;2023-01-29T03:04:28;102232.06;;;-2.50;100.00
4836;BME280;66719;51.226;6.902;2023-01-29T03:06:59;102226.13;;;-2.49;100.00
4836;BME280;66719;51.226;6.902;2023-01-29T03:09:36;102225.69;;;-2.42;100.00
4836;BME280;66719;51.226;6.902;2023-01-29T03:12:18;102221.44;;;-2.41;100.00
4836;BME280;66719;51.226;6.902;2023-01-29T03:14:55;102209.44;;;-2.42;100.00
4836;BME280;66719;51.226;6.902;2023-01-29T03:17:53;102212.16;;;-2.39;100.00
4836;BME280;66719;51.226;6.902;2023-01-29T03:20:29;102217.53;;;-2.35;100.00
4836;BME280;66719;51.226;6.902;2023-01-29T03:23:09;102215.25;;;-2.30;100.00
4836;BME280;66719;51.226;6.902;2023-01-29T03:25:37;102210.81;;;-2.47;100.00
4836;BME280;66719;51.226;6.902;2023-01-29T03:28:25;102214.59;;;-2.70;100.00
4836;BME280;66719;51.226;6.902;2023-01-29T03:31:12;102219.50;;;-2.88;100.00
4836;BME280;66719;51.226;6.902;2023-01-29T03:34:51;102215.59;;;-2.96;100.00
4836;BME280;66719;51.226;6.902;2023-01-29T03:39:51;102224.78;;;-3.00;100.00
4836;BME280;66719;51.226;6.902;2023-01-29T03:42:43;102235.66;;;-3.17;100.00
4836;BME280;66719;51.226;6.902;2023-01-29T03:45:46;102224.31;;;-3.07;100.00
4836;BME280;66719;51.226;6.902;2023-01-29T03:48:24;102226.63;;;-2.97;100.00
4836;BME280;66719;51.226;6.902;2023-01-29T03:51:13;102226.22;;;-2.90;100.00
4836;BME280;66719;51.226;6.902;2023-01-29T03:53:48;102220.75;;;-2.81;100.00
4836;BME280;66719;51.226;6.902;2023-01-29T04:01:53;102215.38;;;-2.71;100.00
4836;BME280;66719;51.226;6.902;2023-01-29T04:04:36;102213.13;;;-2.67;100.00
4836;BME280;66719;51.226;6.902;2023-01-29T04:07:09;102216.38;;;-2.69;100.00
4836;BME280;66719;51.226;6.902;2023-01-29T04:09:48;102218.16;;;-2.68;100.00
4836;BME280;66719;51.226;6.902;2023-01-29T04:12:20;102207.09;;;-2.67;100.00
4836;BME280;66719;51.226;6.902;2023-01-29T04:14:50;102201.53;;;-2.75;100.00
4836;BME280;66719;51.226;6.902;2023-01-29T04:17:23;102194.97;;;-2.85;100.00
4836;BME280;66719;51.226;6.902;2023-01-29T04:19:52;102197.19;;;-2.76;100.00
4836;BME280;66719;51.226;6.902;2023-01-29T04:22:22;102202.50;;;-2.73;100.00
4836;BME280;66719;51.226;6.902;2023-01-29T04:24:50;102197.88;;;-2.78;100.00
4836;BME280;66719;51.226;6.902;2023-01-29T04:27:22;102192.66;;;-2.95;100.00
4836;BME280;66719;51.226;6.902;2023-01-29T04:32:53;102170.38;;;-2.96;100.00
4836;BME280;66719;51.226;6.902;2023-01-29T04:40:42;102166.63;;;-2.73;100.00
4836;BME280;66719;51.226;6.902;2023-01-29T04:43:20;102168.38;;;-2.72;100.00
4836;BME280;66719;51.226;6.902;2023-01-29T04:46:18;102167.06;;;-2.80;100.00
4836;BME280;66719;51.226;6.902;2023-01-29T04:49:01;102172.16;;;-2.95;100.00
4836;BME280;66719;51.226;6.902;2023-01-29T04:51:46;102181.31;;;-2.98;100.00
4836;BME280;66719;51.226;6.902;2023-01-29T04:54:19;102168.16;;;-3.04;100.00
4836;BME280;66719;51.226;6.902;2023-01-29T04:56:56;102159.88;;;-3.00;100.00
4836;BME280;66719;51.226;6.902;2023-01-29T04:59:34;102161.72;;;-2.98;100.00
4836;BME280;66719;51.226;6.902;2023-01-29T05:02:03;102169.81;;;-3.05;100.00
4836;BME280;66719;51.226;6.902;2023-01-29T05:04:31;102161.03;;;-2.95;100.00
4836;BME280;66719;51.226;6.902;2023-01-29T05:07:06;102160.25;;;-2.94;100.00
4836;BME280;66719;51.226;6.902;2023-01-29T05:09:36;102155.72;;;-2.98;100.00
4836;BME280;66719;51.226;6.902;2023-01-29T05:12:08;102156.09;;;-2.92;100.00
4836;BME280;66719;51.226;6.902;2023-01-29T05:14:36;102162.97;;;-2.91;100.00
4836;BME280;66719;51.226;6.902;2023-01-29T05:17:10;102157.84;;;-2.91;100.00
4836;BME280;66719;51.226;6.902;2023-01-29T05:19:38;102161.81;;;-2.96;100.00
4836;BME280;66719;51.226;6.902;2023-01-29T05:22:05;102152.44;;;-2.96;100.00
4836;BME280;66719;51.226;6.902;2023-01-29T05:24:34;102143.78;;;-2.98;100.00
4836;BME280;66719;51.226;6.902;2023-01-29T05:27:01;102140.72;;;-2.92;100.00
4836;BME280;66719;51.226;6.902;2023-01-29T05:29:47;102140.88;;;-2.89;100.00
4836;BME280;66719;51.226;6.902;2023-01-29T05:32:14;102146.00;;;-2.89;100.00
4836;BME280;66719;51.226;6.902;2023-01-29T05:34:41;102151.13;;;-2.89;100.00
4836;BME280;66719;51.226;6.902;2023-01-29T05:37:09;102139.03;;;-2.92;100.00
4836;BME280;66719;51.226;6.902;2023-01-29T05:39:35;102138.16;;;-2.92;100.00
4836;BME280;66719;51.226;6.902;2023-01-29T05:42:02;102135.69;;;-2.91;100.00
4836;BME280;66719;51.226;6.902;2023-01-29T05:44:28;102144.53;;;-2.86;100.00
4836;BME280;66719;51.226;6.902;2023-01-29T05:46:55;102131.38;;;-2.77;100.00
4836;BME280;66719;51.226;6.902;2023-01-29T05:49:21;102131.13;;;-2.67;100.00
4836;BME280;66719;51.226;6.902;2023-01-29T05:51:48;102129.16;;;-2.56;100.00
4836;BME280;66719;51.226;6.902;2023-01-29T05:54:14;102130.31;;;-2.51;100.00
4836;BME280;66719;51.226;6.902;2023-01-29T05:56:41;102141.78;;;-2.44;100.00
4836;BME280;66719;51.226;6.902;2023-01-29T05:59:07;102142.13;;;-2.38;100.00
4836;BME280;66719;51.226;6.902;2023-01-29T06:01:34;102138.78;;;-2.37;100.00
4836;BME280;66719;51.226;6.902;2023-01-29T06:04:01;102143.66;;;-2.42;100.00
4836;BME280;66719;51.226;6.902;2023-01-29T06:06:27;102147.19;;;-2.40;100.00
4836;BME280;66719;51.226;6.902;2023-01-29T06:08:55;102153.63;;;-2.32;100.00
4836;BME280;66719;51.226;6.902;2023-01-29T06:11:21;102158.03;;;-2.29;100.00
4836;BME280;66719;51.226;6.902;2023-01-29T06:13:48;102155.63;;;-2.26;100.00
4836;BME280;66719;51.226;6.902;2023-01-29T06:16:15;102161.56;;;-2.27;100.00
4836;BME280;66719;51.226;6.902;2023-01-29T06:18:41;102157.59;;;-2.22;100.00
4836;BME280;66719;51.226;6.902;2023-01-29T06:21:10;102165.22;;;-2.23;100.00
4836;BME280;66719;51.226;6.902;2023-01-29T06:23:38;102168.00;;;-2.19;100.00
4836;BME280;66719;51.226;6.902;2023-01-29T06:26:07;102172.78;;;-2.10;100.00
4836;BME280;66719;51.226;6.902;2023-01-29T06:28:34;102172.09;;;-2.08;100.00
4836;BME280;66719;51.226;6.902;2023-01-29T06:31:02;102175.69;;;-2.04;100.00
4836;BME280;66719;51.226;6.902;2023-01-29T06:33:48;102179.94;;;-2.05;100.00
4836;BME280;66719;51.226;6.902;2023-01-29T06:36:15;102191.72;;;-2.08;100.00
4836;BME280;66719;51.226;6.902;2023-01-29T06:38:41;102198.69;;;-2.06;100.00
4836;BME280;66719;51.226;6.902;2023-01-29T06:41:18;102185.16;;;-2.03;100.00
4836;BME280;66719;51.226;6.902;2023-01-29T06:43:45;102189.47;;;-2.02;100.00
4836;BME280;66719;51.226;6.902;2023-01-29T06:46:13;102192.25;;;-1.99;100.00
4836;BME280;66719;51.226;6.902;2023-01-29T06:48:40;102194.69;;;-2.01;100.00
4836;BME280;66719;51.226;6.902;2023-01-29T06:51:08;102195.59;;;-2.00;100.00
4836;BME280;66719;51.226;6.902;2023-01-29T06:53:36;102188.00;;;-1.98;100.00
4836;BME280;66719;51.226;6.902;2023-01-29T06:56:04;102186.47;;;-1.95;100.00
4836;BME280;66719;51.226;6.902;2023-01-29T06:58:31;102187.28;;;-1.96;100.00
4836;BME280;66719;51.226;6.902;2023-01-29T07:01:08;102177.09;;;-1.94;100.00
4836;BME280;66719;51.226;6.902;2023-01-29T07:03:35;102169.47;;;-1.93;100.00
4836;BME280;66719;51.226;6.902;2023-01-29T07:06:03;102170.28;;;-1.94;100.00
4836;BME280;66719;51.226;6.902;2023-01-29T07:08:30;102174.88;;;-1.88;100.00
4836;BME280;66719;51.226;6.902;2023-01-29T07:11:00;102171.34;;;-1.90;100.00
4836;BME280;66719;51.226;6.902;2023-01-29T07:13:27;102175.25;;;-1.97;100.00
4836;BME280;66719;51.226;6.902;2023-01-29T07:15:57;102177.25;;;-1.91;100.00
4836;BME280;66719;51.226;6.902;2023-01-29T07:18:24;102176.47;;;-1.90;100.00
4836;BME280;66719;51.226;6.902;2023-01-29T07:20:51;102185.13;;;-1.88;100.00
4836;BME280;66719;51.226;6.902;2023-01-29T07:23:17;102179.13;;;-1.89;100.00
4836;BME280;66719;51.226;6.902;2023-01-29T07:25:44;102179.94;;;-1.90;100.00
4836;BME280;66719;51.226;6.902;2023-01-29T07:28:11;102181.13;;;-1.83;100.00
4836;BME280;66719;51.226;6.902;2023-01-29T07:30:37;102184.56;;;-1.83;100.00
4836;BME280;66719;51.226;6.902;2023-01-29T07:33:05;102185.66;;;-1.79;100.00
4836;BME280;66719;51.226;6.902;2023-01-29T07:35:41;102188.22;;;-1.79;100.00
4836;BME280;66719;51.226;6.902;2023-01-29T07:38:09;102178.91;;;-1.77;100.00
4836;BME280;66719;51.226;6.902;2023-01-29T07:40:36;102175.72;;;-1.73;100.00
4836;BME280;66719;51.226;6.902;2023-01-29T07:43:05;102175.00;;;-1.71;100.00
4836;BME280;66719;51.226;6.902;2023-01-29T07:45:33;102172.97;;;-1.76;100.00
4836;BME280;66719;51.226;6.902;2023-01-29T07:48:01;102159.84;;;-1.66;100.00
4836;BME280;66719;51.226;6.902;2023-01-29T07:50:31;102165.97;;;-1.64;100.00
4836;BME280;66719;51.226;6.902;2023-01-29T07:52:58;102171.16;;;-1.62;100.00
4836;BME280;66719;51.226;6.902;2023-01-29T07:55:25;102175.50;;;-1.61;100.00
4836;BME280;66719;51.226;6.902;2023-01-29T07:58:09;102173.81;;;-1.61;100.00
4836;BME280;66719;51.226;6.902;2023-01-29T08:00:36;102168.22;;;-1.54;100.00
4836;BME280;66719;51.226;6.902;2023-01-29T08:03:06;102157.94;;;-1.54;100.00
4836;BME280;66719;51.226;6.902;2023-01-29T08:05:35;102150.16;;;-1.55;100.00
4836;BME280;66719;51.226;6.902;2023-01-29T08:08:01;102159.28;;;-1.60;100.00
4836;BME280;66719;51.226;6.902;2023-01-29T08:10:34;102158.75;;;-1.55;100.00
4836;BME280;66719;51.226;6.902;2023-01-29T08:13:02;102161.41;;;-1.53;100.00
4836;BME280;66719;51.226;6.902;2023-01-29T08:15:29;102162.28;;;-1.53;100.00
4836;BME280;66719;51.226;6.902;2023-01-29T08:17:55;102158.09;;;-1.51;100.00
4836;BME280;66719;51.226;6.902;2023-01-29T08:20:42;102161.63;;;-1.49;100.00
4836;BME280;66719;51.226;6.902;2023-01-29T08:23:14;102162.44;;;-1.50;100.00
4836;BME280;66719;51.226;6.902;2023-01-29T08:25:41;102158.09;;;-1.51;100.00
4836;BME280;66719;51.226;6.902;2023-01-29T08:28:07;102159.78;;;-1.51;100.00
4836;BME280;66719;51.226;6.902;2023-01-29T08:30:35;102151.34;;;-1.49;100.00
4836;BME280;66719;51.226;6.902;2023-01-29T08:33:02;102147.28;;;-1.45;100.00
4836;BME280;66719;51.226;6.902;2023-01-29T08:35:29;102149.66;;;-1.48;100.00
4836;BME280;66719;51.226;6.902;2023-01-29T08:37:58;102151.63;;;-1.44;100.00
4836;BME280;66719;51.226;6.902;2023-01-29T08:40:28;102150.47;;;-1.49;100.00
4836;BME280;66719;51.226;6.902;2023-01-29T08:43:02;102155.22;;;-1.40;100.00
4836;BME280;66719;51.226;6.902;2023-01-29T08:45:33;102156.97;;;-1.39;100.00
4836;BME280;66719;51.226;6.902;2023-01-29T08:48:00;102160.34;;;-1.40;100.00
4836;BME280;66719;51.226;6.902;2023-01-29T08:50:27;102157.91;;;-1.39;100.00
4836;BME280;66719;51.226;6.902;2023-01-29T08:53:01;102162.03;;;-1.41;100.00
4836;BME280;66719;51.226;6.902;2023-01-29T08:55:28;102167.34;;;-1.38;100.00
4836;BME280;66719;51.226;6.902;2023-01-29T08:57:55;102162.63;;;-1.30;100.00
4836;BME280;66719;51.226;6.902;2023-01-29T09:00:24;102173.06;;;-1.27;100.00
4836;BME280;66719;51.226;6.902;2023-01-29T09:02:51;102157.16;;;-1.20;100.00
4836;BME280;66719;51.226;6.902;2023-01-29T09:05:17;102151.22;;;-1.19;100.00
4836;BME280;66719;51.226;6.902;2023-01-29T09:07:44;102144.41;;;-1.19;100.00
4836;BME280;66719;51.226;6.902;2023-01-29T09:10:11;102148.81;;;-1.16;100.00
4836;BME280;66719;51.226;6.902;2023-01-29T09:12:38;102136.84;;;-1.16;100.00
4836;BME280;66719;51.226;6.902;2023-01-29T09:15:05;102136.28;;;-1.10;100.00
4836;BME280;66719;51.226;6.902;2023-01-29T09:17:32;102144.94;;;-1.08;100.00
4836;BME280;66719;51.226;6.902;2023-01-29T09:19:58;102144.06;;;-1.08;100.00
4836;BME280;66719;51.226;6.902;2023-01-29T09:22:25;102151.03;;;-1.06;100.00
4836;BME280;66719;51.226;6.902;2023-01-29T09:24:51;102138.19;;;-1.06;100.00
4836;BME280;66719;51.226;6.902;2023-01-29T09:27:18;102131.47;;;-1.04;100.00
4836;BME280;66719;51.226;6.902;2023-01-29T09:29:44;102129.06;;;-1.01;100.00
4836;BME280;66719;51.226;6.902;2023-01-29T09:32:11;102124.72;;;-1.02;100.00
4836;BME280;66719;51.226;6.902;2023-01-29T09:34:37;102129.06;;;-1.01;100.00
4836;BME280;66719;51.226;6.902;2023-01-29T09:37:03;102127.44;;;-0.99;100.00
4836;BME280;66719;51.226;6.902;2023-01-29T09:39:30;102123.25;;;-0.97;100.00
4836;BME280;66719;51.226;6.902;2023-01-29T09:44:57;102108.28;;;-0.88;100.00
4836;BME280;66719;51.226;6.902;2023-01-29T09:47:27;102104.22;;;-0.84;100.00
4836;BME280;66719;51.226;6.902;2023-01-29T09:50:23;102107.59;;;-0.85;100.00
4836;BME280;66719;51.226;6.902;2023-01-29T09:53:22;102102.50;;;-0.83;100.00
4836;BME280;66719;51.226;6.902;2023-01-29T09:55:57;102098.66;;;-0.75;100.00
4836;BME280;66719;51.226;6.902;2023-01-29T09:58:31;102100.53;;;-0.71;100.00
4836;BME280;66719;51.226;6.902;2023-01-29T10:01:20;102102.63;;;-0.64;100.00
4836;BME280;66719;51.226;6.902;2023-01-29T10:04:15;102097.47;;;-0.64;100.00
4836;BME280;66719;51.226;6.902;2023-01-29T10:25:39;102096.16;;;-0.38;100.00
4836;BME280;66719;51.226;6.902;2023-01-29T10:30:56;102088.75;;;-0.32;100.00
4836;BME280;66719;51.226;6.902;2023-01-29T10:33:31;102092.50;;;-0.25;100.00
4836;BME280;66719;51.226;6.902;2023-01-29T10:36:22;102090.88;;;-0.23;100.00
4836;BME280;66719;51.226;6.902;2023-01-29T10:38:51;102091.53;;;-0.28;100.00
4836;BME280;66719;51.226;6.902;2023-01-29T10:41:37;102082.13;;;-0.27;100.00
4836;BME280;66719;51.226;6.902;2023-01-29T10:44:40;102080.53;;;-0.25;100.00
4836;BME280;66719;51.226;6.902;2023-01-29T10:47:50;102070.31;;;-0.23;100.00
4836;BME280;66719;51.226;6.902;2023-01-29T10:58:51;102048.66;;;-0.09;100.00
4836;BME280;66719;51.226;6.902;2023-01-29T11:01:18;102040.22;;;-0.07;100.00
4836;BME280;66719;51.226;6.902;2023-01-29T11:03:55;102037.81;;;-0.02;100.00
4836;BME280;66719;51.226;6.902;2023-01-29T11:09:02;102034.94;;;0.10;100.00
4836;BME280;66719;51.226;6.902;2023-01-29T11:11:45;102028.94;;;0.09;100.00
4836;BME280;66719;51.226;6.902;2023-01-29T11:14:20;102035.06;;;0.13;100.00
4836;BME280;66719;51.226;6.902;2023-01-29T11:16:48;102028.53;;;0.19;100.00
4836;BME280;66719;51.226;6.902;2023-01-29T11:19:15;102028.59;;;0.21;100.00
4836;BME280;66719;51.226;6.902;2023-01-29T11:22:00;102025.31;;;0.25;100.00
4836;BME280;66719;51.226;6.902;2023-01-29T11:24:27;102028.13;;;0.30;100.00
4836;BME280;66719;51.226;6.902;2023-01-29T11:26:56;102018.81;;;0.33;100.00
4836;BME280;66719;51.226;6.902;2023-01-29T11:29:44;102017.94;;;0.33;100.00
4836;BME280;66719;51.226;6.902;2023-01-29T11:32:33;102024.78;;;0.32;100.00
4836;BME280;66719;51.226;6.902;2023-01-29T11:37:42;102013.47;;;0.28;100.00
4836;BME280;66719;51.226;6.902;2023-01-29T11:42:45;102014.69;;;0.37;100.00
4836;BME280;66719;51.226;6.902;2023-01-29T11:47:57;101994.81;;;0.34;100.00
4836;BME280;66719;51.226;6.902;2023-01-29T11:50:27;101984.41;;;0.31;100.00
4836;BME280;66719;51.226;6.902;2023-01-29T11:52:54;101987.03;;;0.33;100.00
4836;BME280;66719;51.226;6.902;2023-01-29T11:55:22;101982.75;;;0.33;100.00
4836;BME280;66719;51.226;6.902;2023-01-29T11:58:12;101972.69;;;0.38;100.00
4836;BME280;66719;51.226;6.902;2023-01-29T12:00:41;101962.44;;;0.39;100.00
4836;BME280;66719;51.226;6.902;2023-01-29T12:03:12;101966.81;;;0.42;100.00
4836;BME280;66719;51.226;6.902;2023-01-29T12:05:53;101962.72;;;0.45;100.00
4836;BME280;66719;51.226;6.902;2023-01-29T12:08:22;101956.69;;;0.45;100.00
4836;BME280;66719;51.226;6.902;2023-01-29T12:10:50;101949.06;;;0.48;100.00
4836;BME280;66719;51.226;6.902;2023-01-29T12:13:27;101944.91;;;0.51;100.00
4836;BME280;66719;51.226;6.902;2023-01-29T12:18:49;101924.25;;;0.50;100.00
4836;BME280;66719;51.226;6.902;2023-01-29T12:21:35;101908.13;;;0.54;100.00
4836;BME280;66719;51.226;6.902;2023-01-29T12:24:30;101906.59;;;0.59;100.00
4836;BME280;66719;51.226;6.902;2023-01-29T12:27:24;101897.09;;;0.58;100.00
4836;BME280;66719;51.226;6.902;2023-01-29T12:30:12;101881.53;;;0.55;100.00
4836;BME280;66719;51.226;6.902;2023-01-29T12:32:48;101878.13;;;0.56;100.00
4836;BME280;66719;51.226;6.902;2023-01-29T12:40:20;101849.81;;;0.56;100.00
4836;BME280;66719;51.226;6.902;2023-01-29T12:42:54;101846.41;;;0.57;100.00
4836;BME280;66719;51.226;6.902;2023-01-29T12:45:24;101842.13;;;0.57;100.00
4836;BME280;66719;51.226;6.902;2023-01-29T12:48:07;101838.94;;;0.63;100.00
4836;BME280;66719;51.226;6.902;2023-01-29T12:50:37;101837.19;;;0.62;100.00
4836;BME280;66719;51.226;6.902;2023-01-29T12:53:26;101828.75;;;0.66;100.00
4836;BME280;66719;51.226;6.902;2023-01-29T12:56:04;101814.28;;;0.70;100.00
4836;BME280;66719;51.226;6.902;2023-01-29T12:58:55;101813.47;;;0.71;100.00
4836;BME280;66719;51.226;6.902;2023-01-29T13:04:10;101796.88;;;0.64;100.00
4836;BME280;66719;51.226;6.902;2023-01-29T13:06:46;101795.28;;;0.68;100.00
4836;BME280;66719;51.226;6.902;2023-01-29T13:09:22;101794.38;;;0.66;100.00
4836;BME280;66719;51.226;6.902;2023-01-29T13:11:54;101786.63;;;0.66;100.00
4836;BME280;66719;51.226;6.902;2023-01-29T13:14:35;101795.34;;;0.69;100.00
4836;BME280;66719;51.226;6.902;2023-01-29T13:19:42;101791.28;;;0.74;100.00
4836;BME280;66719;51.226;6.902;2023-01-29T13:22:18;101780.97;;;0.74;100.00
4836;BME280;66719;51.226;6.902;2023-01-29T13:24:47;101787.09;;;0.78;100.00
4836;BME280;66719;51.226;6.902;2023-01-29T13:27:31;101788.81;;;0.77;100.00
4836;BME280;66719;51.226;6.902;2023-01-29T13:29:58;101782.03;;;0.79;100.00
4836;BME280;66719;51.226;6.902;2023-01-29T13:32:27;101779.56;;;0.82;100.00
4836;BME280;66719;51.226;6.902;2023-01-29T13:34:57;101793.25;;;0.81;100.00
4836;BME280;66719;51.226;6.902;2023-01-29T13:37:33;101790.63;;;0.80;100.00
4836;BME280;66719;51.226;6.902;2023-01-29T13:40:02;101790.59;;;0.78;100.00
4836;BME280;66719;51.226;6.902;2023-01-29T13:42:45;101793.25;;;0.81;100.00
4836;BME280;66719;51.226;6.902;2023-01-29T13:45:29;101788.94;;;0.80;100.00
4836;BME280;66719;51.226;6.902;2023-01-29T13:48:09;101787.28;;;0.82;100.00
4836;BME280;66719;51.226;6.902;2023-01-29T13:50:40;101793.31;;;0.83;100.00
4836;BME280;66719;51.226;6.902;2023-01-29T13:53:19;101793.38;;;0.84;100.00
4836;BME280;66719;51.226;6.902;2023-01-29T13:55:47;101791.63;;;0.83;100.00
4836;BME280;66719;51.226;6.902;2023-01-29T14:01:09;101791.56;;;0.82;100.00
4836;BME280;66719;51.226;6.902;2023-01-29T14:03:44;101794.16;;;0.82;100.00
4836;BME280;66719;51.226;6.902;2023-01-29T14:06:39;101791.50;;;0.80;100.00
4836;BME280;66719;51.226;6.902;2023-01-29T14:17:20;101777.81;;;0.81;100.00
4836;BME280;66719;51.226;6.902;2023-01-29T14:20:00;101780.38;;;0.81;100.00
4836;BME280;66719;51.226;6.902;2023-01-29T14:22:29;101780.47;;;0.84;100.00
4836;BME280;66719;51.226;6.902;2023-01-29T14:25:01;101777.03;;;0.84;100.00
4836;BME280;66719;51.226;6.902;2023-01-29T14:27:30;101772.75;;;0.84;100.00
4836;BME280;66719;51.226;6.902;2023-01-29T14:30:02;101771.88;;;0.84;100.00
4836;BME280;66719;51.226;6.902;2023-01-29T14:32:32;101778.09;;;0.89;100.00
4836;BME280;66719;51.226;6.902;2023-01-29T14:35:03;101771.28;;;0.91;100.00
4836;BME280;66719;51.226;6.902;2023-01-29T14:37:38;101772.13;;;0.90;100.00
4836;BME280;66719;51.226;6.902;2023-01-29T14:42:44;101771.19;;;0.88;100.00
4836;BME280;66719;51.226;6.902;2023-01-29T14:45:32;101768.63;;;0.88;100.00
4836;BME280;66719;51.226;6.902;2023-01-29T14:53:29;101758.31;;;0.88;100.00
4836;BME280;66719;51.226;6.902;2023-01-29T14:56:21;101763.50;;;0.90;100.00
4836;BME280;66719;51.226;6.902;2023-01-29T14:58:52;101754.91;;;0.89;100.00
4836;BME280;66719;51.226;6.902;2023-01-29T15:01:34;101759.22;;;0.90;100.00
4836;BME280;66719;51.226;6.902;2023-01-29T15:06:46;101749.78;;;0.91;100.00
4836;BME280;66719;51.226;6.902;2023-01-29T15:09:17;101747.22;;;0.91;100.00
4836;BME280;66719;51.226;6.902;2023-01-29T15:11:59;101760.94;;;0.90;100.00